Time;durP1;ratioP1;P1;durP2;ratioP2;P2;SDS_P1;SDS_P2;PMS_P1;PMS_P2;Temp;Humidity;BMP_temperature;BMP_pressure;BME280_temperature;BME280_humidity;BME280_pressure;Samples;Min_cycle;Max_cycle;Signal;HPM_P1;HPM_P2
2023/02/15 00:01:55;;;;;;;1.90;0.90;;;;;;;1.58;63.31;100872.30;105828;1255;64532;-72
2023/02/15 00:04:23;;;;;;;1.60;1.00;;;;;;;1.59;63.20;100875.70;105452;1253;60352;-72
2023/02/15 00:06:51;;;;;;;1.90;1.10;;;;;;;1.58;63.08;100878.00;105905;1253;60431;-74
2023/02/15 00:09:17;;;;;;;1.90;1.00;;;;;;;1.57;62.92;100879.59;105774;1256;66713;-74
2023/02/15 00:11:50;;;;;;;1.60;1.00;;;;;;;1.56;62.82;100879.48;105714;1251;60889;-74
2023/02/15 00:21:58;;;;;;;2.20;1.00;;;;;;;1.58;62.14;100882.70;102755;1290;599925;-74
2023/02/15 00:24:26;;;;;;;2.10;1.10;;;;;;;1.58;61.97;100882.16;104780;1270;59341;-74
2023/02/15 00:26:54;;;;;;;1.90;1.00;;;;;;;1.58;61.85;100880.44;104962;1267;59270;-69
2023/02/15 00:29:24;;;;;;;2.90;1.20;;;;;;;1.57;61.81;100883.40;104963;1272;65000;-73
2023/02/15 00:31:53;;;;;;;1.90;1.00;;;;;;;1.58;61.68;100886.34;105771;1261;59749;-74
2023/02/15 00:34:25;;;;;;;1.70;0.90;;;;;;;1.58;61.53;100884.42;105726;1260;65277;-72
2023/02/15 00:36:53;;;;;;;4.70;1.10;;;;;;;1.57;61.41;100883.95;105698;1254;59381;-73
2023/02/15 00:39:23;;;;;;;2.20;1.00;;;;;;;1.54;61.37;100882.29;105776;1259;59291;-73
2023/02/15 00:41:52;;;;;;;2.30;1.10;;;;;;;1.49;61.33;100883.34;105708;1259;65805;-72
2023/02/15 00:44:20;;;;;;;2.30;1.10;;;;;;;1.48;61.21;100883.38;105870;1253;60297;-73
2023/02/15 00:46:49;;;;;;;1.40;1.00;;;;;;;1.47;61.13;100878.23;105948;1255;65118;-73
2023/02/15 00:49:17;;;;;;;2.20;1.10;;;;;;;1.47;61.17;100878.56;105850;1260;59612;-74
2023/02/15 00:51:46;;;;;;;1.60;0.90;;;;;;;1.46;61.17;100877.02;105950;1254;59633;-75
2023/02/15 00:54:14;;;;;;;1.80;0.90;;;;;;;1.47;61.12;100875.62;106021;1254;65683;-73
2023/02/15 00:56:42;;;;;;;2.70;1.10;;;;;;;1.46;61.07;100876.67;105758;1259;60974;-73
2023/02/15 00:59:10;;;;;;;1.50;0.80;;;;;;;1.46;60.96;100873.39;105892;1256;65573;-76
2023/02/15 01:01:38;;;;;;;2.00;1.00;;;;;;;1.44;60.91;100875.67;105901;1258;59535;-74
2023/02/15 01:04:07;;;;;;;1.80;0.90;;;;;;;1.45;60.86;100875.48;105825;1254;59682;-73
2023/02/15 01:06:35;;;;;;;1.40;0.90;;;;;;;1.44;60.94;100878.47;105894;1254;64939;-75
2023/02/15 01:09:03;;;;;;;1.60;0.80;;;;;;;1.41;60.79;100873.17;105883;1253;66953;-73
2023/02/15 01:11:32;;;;;;;1.80;1.00;;;;;;;1.39;60.76;100878.29;105701;1257;65718;-73
2023/02/15 01:14:03;;;;;;;1.80;0.80;;;;;;;1.38;60.81;100877.46;105541;1254;59784;-74
2023/02/15 01:16:31;;;;;;;2.60;1.10;;;;;;;1.37;60.90;100882.89;105745;1255;60295;-74
2023/02/15 01:19:02;;;;;;;2.20;0.90;;;;;;;1.35;60.79;100881.02;105712;1260;66093;-73
2023/02/15 01:21:34;;;;;;;;;;;;;;;1.34;60.83;100878.96;105945;1257;59984;-73
2023/02/15 01:24:03;;;;;;;1.90;1.20;;;;;;;1.33;60.81;100878.33;105799;1259;65609;-72
2023/02/15 01:26:31;;;;;;;2.20;1.10;;;;;;;1.32;60.85;100874.02;106559;1256;59561;-74
2023/02/15 01:29:00;;;;;;;2.00;1.00;;;;;;;1.31;60.83;100875.98;106121;1254;59605;-73
2023/02/15 01:31:28;;;;;;;1.40;0.90;;;;;;;1.30;60.63;100873.92;107563;1256;66116;-72
2023/02/15 01:33:57;;;;;;;1.60;0.90;;;;;;;1.30;60.53;100873.59;107803;1259;59672;-73
2023/02/15 01:36:25;;;;;;;2.10;0.80;;;;;;;1.31;60.35;100871.27;107115;1257;64367;-72
2023/02/15 01:38:53;;;;;;;2.00;0.90;;;;;;;1.33;60.24;100872.77;106834;1254;59682;-73
2023/02/15 01:41:25;;;;;;;1.70;0.80;;;;;;;1.34;60.10;100871.33;105813;1255;59611;-75
2023/02/15 01:43:56;;;;;;;1.40;0.80;;;;;;;1.36;59.95;100874.76;105808;1256;65785;-74
2023/02/15 01:46:34;;;;;;;1.70;0.80;;;;;;;1.38;59.80;100875.91;105780;1254;59770;-73
2023/02/15 01:49:08;;;;;;;2.50;0.70;;;;;;;1.39;59.67;100873.27;105700;1262;65510;-73
2023/02/15 01:51:37;;;;;;;2.30;0.90;;;;;;;1.40;59.41;100875.14;105921;1254;59707;-73
2023/02/15 01:54:07;;;;;;;1.60;0.70;;;;;;;1.41;59.44;100876.16;105920;1255;61395;-73
2023/02/15 01:56:37;;;;;;;2.40;0.70;;;;;;;1.41;59.16;100875.95;105963;1257;65892;-73
2023/02/15 01:59:08;;;;;;;1.10;0.80;;;;;;;1.40;58.77;100878.07;105734;1260;59706;-73
2023/02/15 02:01:37;;;;;;;0.80;0.60;;;;;;;1.40;58.75;100879.12;105820;1259;65458;-73
2023/02/15 02:04:11;;;;;;;0.70;0.60;;;;;;;1.41;58.76;100878.91;105788;1259;59542;-73
2023/02/15 02:06:39;;;;;;;0.90;0.60;;;;;;;1.43;58.57;100876.23;105775;1261;59629;-73
2023/02/15 02:09:08;;;;;;;1.10;0.60;;;;;;;1.43;58.41;100873.80;105831;1259;65991;-74
2023/02/15 02:11:38;;;;;;;0.60;0.60;;;;;;;1.42;58.42;100874.34;105804;1262;59913;-74
2023/02/15 02:14:07;;;;;;;1.10;0.80;;;;;;;1.43;58.29;100878.33;105651;1260;65686;-73
2023/02/15 02:17:16;;;;;;;1.40;0.70;;;;;;;1.43;58.29;100877.27;105731;1259;59762;-75
2023/02/15 02:20:02;;;;;;;1.00;0.50;;;;;;;1.46;58.32;100880.50;105804;1255;59650;-73
2023/02/15 02:22:31;;;;;;;1.40;0.70;;;;;;;1.46;58.32;100884.49;105898;1258;65820;-73
2023/02/15 02:25:17;;;;;;;1.40;0.70;;;;;;;1.47;58.32;100885.84;105824;1258;59607;-73
2023/02/15 02:27:52;;;;;;;1.60;0.90;;;;;;;1.48;58.32;100883.39;105895;1257;65513;-73
2023/02/15 02:30:46;;;;;;;1.30;0.90;;;;;;;1.48;58.16;100884.42;105951;1257;59528;-73
2023/02/15 02:33:49;;;;;;;2.00;0.80;;;;;;;1.46;58.02;100888.48;105839;1256;59768;-73
2023/02/15 02:36:23;;;;;;;2.50;0.90;;;;;;;1.44;57.94;100888.70;105772;1257;65866;-73
2023/02/15 02:39:13;;;;;;;2.10;0.60;;;;;;;1.43;57.88;100887.87;105861;1257;59736;-73
2023/02/15 02:41:49;;;;;;;1.20;0.70;;;;;;;1.43;57.90;100890.80;105769;1258;64591;-73
2023/02/15 02:44:30;;;;;;;1.40;0.90;;;;;;;1.44;57.91;100893.38;105768;1260;59652;-73
2023/02/15 02:47:24;;;;;;;0.90;0.70;;;;;;;1.44;57.85;100897.20;105672;1255;59743;-73
2023/02/15 02:49:57;;;;;;;1.20;0.70;;;;;;;1.44;57.58;100904.66;105523;1260;65979;-74
2023/02/15 02:52:32;;;;;;;2.00;1.00;;;;;;;1.43;57.50;100907.81;105721;1257;59576;-74
2023/02/15 02:55:02;;;;;;;1.80;0.90;;;;;;;1.43;57.30;100908.16;105941;1257;65278;-72
2023/02/15 02:57:30;;;;;;;1.00;0.80;;;;;;;1.43;57.37;100910.59;105878;1259;59763;-72
2023/02/15 02:59:59;;;;;;;1.50;0.90;;;;;;;1.42;57.43;100906.64;105722;1254;59742;-73
2023/02/15 03:02:29;;;;;;;1.60;0.80;;;;;;;1.42;57.44;100909.93;106244;1257;66220;-73
2023/02/15 03:05:03;;;;;;;1.20;0.80;;;;;;;1.43;57.53;100914.94;105800;1254;59733;-73
2023/02/15 03:07:31;;;;;;;;;;;;;;;1.46;57.45;100914.34;105789;1260;65533;-73
2023/02/15 03:10:02;;;;;;;1.70;1.00;;;;;;;1.46;57.54;100913.98;105817;1260;59627;-73
2023/02/15 03:12:38;;;;;;;1.90;1.00;;;;;;;1.46;57.54;100912.10;105896;1255;59627;-73
2023/02/15 03:18:30;;;;;;;1.70;0.80;;;;;;;1.47;57.71;100914.81;106041;1258;59883;-73
2023/02/15 03:21:00;;;;;;;1.60;0.80;;;;;;;1.48;57.71;100916.17;106058;1255;65259;-73
2023/02/15 03:23:29;;;;;;;2.80;0.70;;;;;;;1.49;57.67;100923.61;105809;1260;59560;-71
2023/02/15 03:26:01;;;;;;;1.90;0.80;;;;;;;1.49;57.72;100923.77;105570;1254;59635;-72
2023/02/15 03:28:36;;;;;;;1.00;0.80;;;;;;;1.50;57.73;100926.19;105997;1254;64776;-74
2023/02/15 03:31:05;;;;;;;1.10;0.60;;;;;;;1.46;57.78;100925.09;105821;1255;59634;-73
2023/02/15 03:33:35;;;;;;;1.50;0.80;;;;;;;1.40;57.71;100929.08;105866;1264;65333;-73
2023/02/15 03:36:08;;;;;;;1.30;1.00;;;;;;;1.38;57.90;100933.00;105898;1258;59625;-73
2023/02/15 03:39:02;;;;;;;2.00;0.70;;;;;;;1.38;58.04;100932.82;105994;1256;60243;-74
2023/02/15 03:41:34;;;;;;;1.70;1.10;;;;;;;1.38;58.14;100935.09;105815;1257;65757;-73
2023/02/15 03:44:09;;;;;;;1.30;0.90;;;;;;;1.37;58.22;100938.56;105809;1260;59615;-73
2023/02/15 03:47:05;;;;;;;1.80;1.10;;;;;;;1.38;58.22;100942.20;105838;1255;65212;-74
2023/02/15 03:49:53;;;;;;;31.80;21.40;;;;;;;1.37;58.16;100943.60;105679;1259;59599;-73
2023/02/15 03:52:21;;;;;;;36.60;22.20;;;;;;;1.36;58.10;100945.38;106076;1254;59685;-76
2023/02/15 03:54:50;;;;;;;23.40;15.70;;;;;;;1.35;58.25;100947.99;105820;1257;66110;-77
2023/02/15 04:03:12;;;;;;;7.00;4.60;;;;;;;1.34;58.39;100952.37;105737;1254;59646;-74
2023/02/15 04:05:41;;;;;;;4.50;2.60;;;;;;;1.34;58.37;100951.34;105701;1257;59567;-74
2023/02/15 04:08:10;;;;;;;3.20;2.10;;;;;;;1.33;58.50;100951.19;105766;1257;66159;-74
2023/02/15 04:10:55;;;;;;;4.50;2.40;;;;;;;1.31;58.47;100953.48;105634;1254;59922;-73
2023/02/15 04:13:30;;;;;;;2.70;2.10;;;;;;;1.30;58.44;100955.45;105697;1257;65259;-74
2023/02/15 04:16:04;;;;;;;2.10;1.40;;;;;;;1.28;58.52;100956.73;105897;1254;59662;-73
2023/02/15 04:27:05;;;;;;;4.40;2.40;;;;;;;1.27;58.40;100965.61;105792;1257;64569;-73
2023/02/15 04:29:34;;;;;;;2.30;1.80;;;;;;;1.27;58.44;100973.95;105740;1257;59635;-73
2023/02/15 04:32:02;;;;;;;3.40;1.60;;;;;;;1.26;58.50;100977.61;105866;1254;59647;-73
2023/02/15 04:34:30;;;;;;;3.00;1.10;;;;;;;1.25;58.46;100976.42;105786;1255;66124;-72
2023/02/15 04:36:59;;;;;;;2.00;1.40;;;;;;;1.24;58.60;100978.54;105737;1257;59999;-71
2023/02/15 04:39:27;;;;;;;1.90;1.10;;;;;;;1.23;58.55;100978.55;105903;1255;65151;-74
2023/02/15 04:41:55;;;;;;;2.70;1.70;;;;;;;1.24;58.59;100984.11;105970;1254;60331;-72
2023/02/15 04:44:25;;;;;;;2.40;1.80;;;;;;;1.24;58.71;100984.25;105959;1255;60408;-73
2023/02/15 04:46:54;;;;;;;13.80;10.50;;;;;;;1.25;58.63;100985.10;105766;1254;66675;-74
2023/02/15 04:49:23;;;;;;;2.70;1.90;;;;;;;1.27;58.74;100984.71;105711;1257;60420;-73
2023/02/15 04:51:50;;;;;;;2.10;1.40;;;;;;;1.28;58.68;100983.11;105687;1254;65367;-74
2023/02/15 04:54:19;;;;;;;1.50;1.10;;;;;;;1.29;58.59;100980.48;105745;1255;60352;-73
2023/02/15 04:56:47;;;;;;;1.90;1.10;;;;;;;1.28;58.58;100982.92;105892;1255;60488;-72
2023/02/15 04:59:16;;;;;;;1.80;1.10;;;;;;;1.28;58.61;100986.05;105890;1256;66811;-73
2023/02/15 05:01:45;;;;;;;2.00;1.00;;;;;;;1.31;58.59;100988.05;105671;1259;60527;-74
2023/02/15 05:04:15;;;;;;;1.30;0.90;;;;;;;1.37;58.45;100989.07;105741;1256;66430;-73
2023/02/15 05:06:43;;;;;;;1.30;0.90;;;;;;;1.39;58.42;100989.84;105874;1259;60654;-75
2023/02/15 05:09:12;;;;;;;2.00;1.20;;;;;;;1.21;58.67;100993.56;105873;1253;60414;-73
2023/02/15 05:11:41;;;;;;;1.70;0.90;;;;;;;1.18;58.78;100994.55;105692;1257;66481;-74
2023/02/15 05:14:09;;;;;;;2.10;1.20;;;;;;;1.18;58.78;100997.33;105760;1254;60408;-74
2023/02/15 05:16:38;;;;;;;2.30;1.20;;;;;;;1.16;58.80;101003.60;105928;1254;65246;-73
2023/02/15 05:19:07;;;;;;;2.30;1.40;;;;;;;1.16;58.89;101010.36;105724;1254;60525;-75
2023/02/15 05:21:35;;;;;;;3.00;1.50;;;;;;;1.16;58.86;101016.95;105731;1254;60514;-73
2023/02/15 05:28:19;;;;;;;2.90;1.60;;;;;;;1.16;58.87;101014.52;105774;1258;66413;-72
2023/02/15 05:29:40;;;;;;;2.50;1.50;;;;;;;1.15;58.88;101018.35;106192;1254;65532;-73
2023/02/15 05:32:13;;;;;;;1.80;1.30;;;;;;;1.16;58.88;101020.59;107652;1257;60306;-71
2023/02/15 05:34:42;;;;;;;3.70;1.30;;;;;;;1.17;58.90;101016.07;107227;1254;60533;-73
2023/02/15 05:37:11;;;;;;;1.80;1.10;;;;;;;1.17;58.87;101014.51;105832;1256;66456;-72
2023/02/15 05:39:39;;;;;;;2.00;1.00;;;;;;;1.18;58.87;101018.11;105780;1254;60450;-73
2023/02/15 05:42:07;;;;;;;2.60;1.50;;;;;;;1.19;58.84;101020.35;105676;1257;64465;-75
2023/02/15 05:44:36;;;;;;;3.50;1.20;;;;;;;1.17;58.86;101023.19;105653;1254;60331;-73
2023/02/15 05:47:06;;;;;;;4.20;1.40;;;;;;;1.18;58.84;101025.04;105823;1254;60437;-73
2023/02/15 05:49:35;;;;;;;3.00;1.60;;;;;;;1.20;58.85;101023.27;105929;1256;66465;-73
2023/02/15 05:52:04;;;;;;;2.50;1.40;;;;;;;1.19;58.85;101020.84;105923;1254;60447;-74
2023/02/15 05:54:33;;;;;;;2.90;1.40;;;;;;;1.19;58.83;101019.29;105607;1259;65363;-73
2023/02/15 05:57:01;;;;;;;2.20;1.30;;;;;;;1.19;58.86;101023.80;105620;1257;60409;-74
2023/02/15 05:59:30;;;;;;;2.40;1.30;;;;;;;1.20;58.80;101027.42;105741;1254;60409;-73
2023/02/15 06:01:58;;;;;;;1.90;1.50;;;;;;;1.19;58.84;101027.09;105709;1254;65770;-73
2023/02/15 06:04:27;;;;;;;2.80;1.20;;;;;;;1.21;58.86;101029.14;105691;1258;60478;-72
2023/02/15 06:06:55;;;;;;;2.10;1.10;;;;;;;1.21;58.75;101030.68;105887;1255;65475;-73
2023/02/15 06:09:24;;;;;;;2.00;1.20;;;;;;;1.22;58.82;101033.59;105674;1254;60374;-73
2023/02/15 06:11:52;;;;;;;2.40;1.10;;;;;;;1.21;58.63;101032.40;105778;1254;60622;-73
2023/02/15 06:14:20;;;;;;;2.30;1.40;;;;;;;1.20;58.56;101035.91;105860;1254;66728;-74
2023/02/15 06:16:48;;;;;;;3.30;1.40;;;;;;;1.20;58.50;101033.84;105885;1254;60530;-75
2023/02/15 06:19:17;;;;;;;2.00;1.10;;;;;;;1.20;58.58;101031.93;105929;1254;64634;-74
2023/02/15 06:21:46;;;;;;;2.10;1.20;;;;;;;1.20;58.53;101034.02;105703;1257;60422;-74
2023/02/15 06:24:14;;;;;;;2.20;1.40;;;;;;;1.20;58.52;101039.20;105693;1253;60508;-73
2023/02/15 06:26:44;;;;;;;3.00;1.50;;;;;;;1.19;58.48;101037.34;105734;1254;66748;-73
2023/02/15 06:29:12;;;;;;;1.90;1.40;;;;;;;1.19;58.63;101036.45;105861;1254;60437;-74
2023/02/15 06:31:40;;;;;;;4.40;1.60;;;;;;;1.21;58.60;101035.02;105798;1254;65615;-73
2023/02/15 06:34:08;;;;;;;2.40;1.80;;;;;;;1.24;58.42;101032.65;105749;1253;60358;-73
2023/02/15 06:36:36;;;;;;;1.90;1.50;;;;;;;1.25;58.28;101030.54;105932;1255;60341;-73
2023/02/15 06:39:05;;;;;;;2.00;1.60;;;;;;;1.26;58.29;101031.58;105823;1257;66642;-74
2023/02/15 06:41:33;;;;;;;3.10;1.70;;;;;;;1.28;58.37;101034.64;105800;1254;60456;-73
2023/02/15 06:44:01;;;;;;;3.90;1.50;;;;;;;1.30;58.40;101033.36;105930;1254;65506;-73
2023/02/15 06:46:30;;;;;;;4.30;1.50;;;;;;;1.32;58.37;101032.08;105807;1257;60326;-73
2023/02/15 06:48:58;;;;;;;2.80;1.70;;;;;;;1.34;58.20;101030.27;105827;1254;60329;-74
2023/02/15 06:51:28;;;;;;;5.30;2.50;;;;;;;1.36;58.14;101033.52;105816;1254;66778;-74
2023/02/15 06:53:57;;;;;;;5.50;3.90;;;;;;;1.38;57.91;101031.91;105846;1257;60418;-75
2023/02/15 06:56:26;;;;;;;2.90;2.10;;;;;;;1.38;57.74;101034.99;105723;1254;65294;-74
2023/02/15 06:58:56;;;;;;;3.60;1.90;;;;;;;1.41;57.64;101035.08;105621;1254;60552;-73
2023/02/15 07:01:25;;;;;;;3.10;2.20;;;;;;;1.44;57.66;101032.05;105776;1254;60459;-75
2023/02/15 07:03:53;;;;;;;2.00;1.50;;;;;;;1.49;57.65;101037.28;105716;1254;65483;-74
2023/02/15 07:06:33;;;;;;;3.50;1.70;;;;;;;1.55;57.61;101038.66;106288;1254;60426;-74
2023/02/15 07:09:02;;;;;;;2.10;1.30;;;;;;;1.61;57.54;101042.80;105861;1253;65592;-74
2023/02/15 07:14:20;;;;;;;2.50;1.60;;;;;;;1.69;57.27;101042.19;106021;1257;60441;-75
2023/02/15 07:16:50;;;;;;;3.00;1.50;;;;;;;1.73;57.28;101039.98;105785;1254;66729;-73
2023/02/15 07:19:18;;;;;;;1.80;1.50;;;;;;;1.78;57.17;101042.09;109465;1254;58322;-73
2023/02/15 07:21:46;;;;;;;6.50;1.90;;;;;;;1.92;56.90;101041.25;109316;1254;64042;-73
2023/02/15 07:24:15;;;;;;;4.20;1.30;;;;;;;1.94;56.70;101039.99;109486;1253;58100;-74
2023/02/15 07:26:45;;;;;;;6.20;4.10;;;;;;;1.90;56.79;101041.49;109605;1254;58495;-73
2023/02/15 07:29:16;;;;;;;4.10;2.30;;;;;;;1.95;56.83;101045.33;109467;1253;65182;-76
2023/02/15 07:31:45;;;;;;;3.30;2.00;;;;;;;1.99;56.59;101044.65;109620;1252;58377;-73
2023/02/15 07:34:13;;;;;;;7.20;4.50;;;;;;;2.04;56.58;101049.39;109539;1253;64480;-73
2023/02/15 07:36:43;;;;;;;6.00;4.00;;;;;;;2.08;56.20;101050.45;109421;1256;58153;-73
2023/02/15 07:39:11;;;;;;;7.40;2.50;;;;;;;2.12;55.99;101051.17;109609;1253;58126;-73
2023/02/15 07:41:39;;;;;;;3.10;2.10;;;;;;;2.32;55.70;101057.29;109609;1253;66314;-73
2023/02/15 07:44:13;;;;;;;3.50;2.20;;;;;;;2.37;55.59;101061.13;109588;1253;58376;-73
2023/02/15 07:46:41;;;;;;;3.10;1.50;;;;;;;2.40;55.48;101058.58;109633;1253;65092;-73
2023/02/15 07:49:10;;;;;;;1.90;1.40;;;;;;;2.43;55.40;101058.99;109333;1253;58164;-73
2023/02/15 07:51:38;;;;;;;2.80;1.40;;;;;;;2.53;55.15;101058.11;109583;1253;58006;-73
2023/02/15 07:54:06;;;;;;;3.90;1.50;;;;;;;2.57;54.97;101059.16;109592;1254;66437;-73
2023/02/15 07:56:34;;;;;;;3.50;1.40;;;;;;;2.62;54.91;101054.14;109355;1253;58611;-73
2023/02/15 07:59:05;;;;;;;2.20;1.50;;;;;;;2.68;54.79;101053.22;109563;1253;65086;-73
2023/02/15 08:01:36;;;;;;;2.40;1.50;;;;;;;2.72;54.66;101056.04;109542;1253;58095;-73
2023/02/15 08:04:06;;;;;;;3.30;1.70;;;;;;;2.77;54.87;101055.16;109576;1253;58203;-73
2023/02/15 08:06:35;;;;;;;3.30;1.70;;;;;;;2.84;54.94;101055.61;109581;1253;66361;-73
2023/02/15 08:09:06;;;;;;;2.90;1.60;;;;;;;2.90;54.49;101051.57;109365;1254;59559;-73
2023/02/15 08:11:36;;;;;;;3.30;1.70;;;;;;;2.69;54.65;101055.10;109609;1253;64984;-75
2023/02/15 08:14:14;;;;;;;5.30;1.90;;;;;;;2.63;55.08;101055.17;109460;1253;58124;-74
2023/02/15 08:16:50;;;;;;;3.80;2.00;;;;;;;2.67;55.27;101058.30;109579;1253;58082;-73
2023/02/15 08:19:23;;;;;;;4.70;3.00;;;;;;;2.75;55.19;101059.77;109580;1253;63751;-73
2023/02/15 08:21:53;;;;;;;3.50;2.20;;;;;;;2.79;54.73;101055.45;109474;1253;58444;-73
2023/02/15 08:24:23;;;;;;;5.70;4.10;;;;;;;2.77;54.71;101051.66;109555;1253;65268;-73
2023/02/15 08:26:53;;;;;;;21.10;13.40;;;;;;;2.81;54.94;101053.46;109441;1253;58185;-73
2023/02/15 08:29:24;;;;;;;5.80;3.10;;;;;;;2.91;55.13;101054.99;109622;1253;58033;-73
2023/02/15 08:31:53;;;;;;;6.10;2.10;;;;;;;3.02;54.94;101056.86;109473;1254;66273;-74
2023/02/15 08:34:22;;;;;;;2.60;1.80;;;;;;;3.08;54.67;101060.13;109562;1253;59529;-72
2023/02/15 08:36:50;;;;;;;2.90;1.50;;;;;;;3.12;54.51;101061.00;109513;1253;64031;-70
2023/02/15 08:43:55;;;;;;;6.10;2.00;;;;;;;3.22;54.03;101058.91;109499;1253;58175;-69
2023/02/15 08:46:26;;;;;;;4.80;2.10;;;;;;;3.25;53.88;101054.04;109401;1254;66035;-71
2023/02/15 08:48:56;;;;;;;2.60;1.90;;;;;;;3.26;53.64;101058.38;109472;1253;58176;-72
2023/02/15 08:51:26;;;;;;;3.20;1.70;;;;;;;3.24;53.50;101061.93;109429;1254;64069;-71
2023/02/15 08:53:56;;;;;;;3.20;1.90;;;;;;;3.22;53.39;101061.49;109376;1254;58064;-72
2023/02/15 08:56:28;;;;;;;2.90;1.60;;;;;;;3.23;53.34;101063.92;109277;1254;58193;-72
2023/02/15 08:58:57;;;;;;;4.70;1.50;;;;;;;3.20;53.14;101062.64;109400;1254;64865;-72
2023/02/15 09:01:27;;;;;;;2.00;1.30;;;;;;;3.16;52.58;101060.67;109533;1253;58407;-73
2023/02/15 09:03:58;;;;;;;3.80;1.40;;;;;;;3.15;52.60;101062.43;109334;1254;65245;-71
2023/02/15 09:06:29;;;;;;;2.70;1.30;;;;;;;3.19;52.59;101056.57;109399;1253;58066;-71
2023/02/15 09:09:03;;;;;;;3.10;1.40;;;;;;;3.24;52.53;101054.11;109515;1253;58039;-71
2023/02/15 09:11:41;;;;;;;3.20;1.10;;;;;;;3.28;52.53;101050.83;109499;1253;66177;-72
2023/02/15 09:14:14;;;;;;;7.40;3.80;;;;;;;3.28;52.00;101053.95;109492;1253;59248;-73
2023/02/15 09:16:48;;;;;;;6.60;4.80;;;;;;;3.26;51.92;101052.63;109452;1253;66003;-71
2023/02/15 09:19:18;;;;;;;3.20;1.70;;;;;;;3.26;51.57;101049.69;109502;1253;58100;-75
2023/02/15 09:21:47;;;;;;;3.00;1.60;;;;;;;3.25;51.41;101049.19;109378;1254;58068;-76
2023/02/15 09:24:15;;;;;;;2.40;1.60;;;;;;;3.22;50.86;101051.75;109511;1253;65161;-74
2023/02/15 09:26:45;;;;;;;2.30;1.30;;;;;;;3.25;51.03;101050.05;109330;1253;59237;-74
2023/02/15 09:29:14;;;;;;;2.40;1.10;;;;;;;3.42;50.80;101049.41;109506;1254;65806;-74
2023/02/15 09:31:45;;;;;;;1.20;0.90;;;;;;;3.63;50.34;101044.55;109462;1253;58119;-73
2023/02/15 09:34:17;;;;;;;2.00;1.00;;;;;;;3.83;49.48;101043.41;109288;1254;58285;-79
2023/02/15 09:36:45;;;;;;;1.20;0.70;;;;;;;3.92;48.80;101041.30;109385;1254;65857;-77
2023/02/15 09:39:27;;;;;;;1.10;0.80;;;;;;;3.92;48.29;101040.08;109388;1254;59766;-76
2023/02/15 09:42:09;;;;;;;1.60;1.00;;;;;;;3.88;48.42;101044.27;109262;1254;65046;-77
2023/02/15 09:44:37;;;;;;;1.60;0.90;;;;;;;3.85;48.58;101044.73;109360;1254;58179;-73
2023/02/15 09:47:14;;;;;;;1.20;0.80;;;;;;;3.83;48.51;101043.77;109454;1254;58057;-75
2023/02/15 09:49:53;;;;;;;1.50;0.90;;;;;;;3.87;48.65;101041.14;109449;1254;66160;-81
2023/02/15 09:52:48;;;;;;;1.50;1.00;;;;;;;4.01;48.89;101037.77;109261;1254;59336;-81
2023/02/15 09:55:26;;;;;;;2.60;1.00;;;;;;;4.18;48.38;101039.16;109498;1254;65053;-79
2023/02/15 09:58:12;;;;;;;1.80;1.00;;;;;;;4.19;48.02;101043.28;109422;1254;58190;-78
2023/02/15 10:00:50;;;;;;;2.10;1.20;;;;;;;4.22;48.22;101049.45;109477;1254;58161;-83
2023/02/15 10:03:49;;;;;;;2.90;2.20;;;;;;;4.27;48.16;101049.05;109418;1254;64874;-82
2023/02/15 10:07:02;;;;;;;3.90;3.00;;;;;;;4.30;47.88;101047.20;109251;1254;59379;-80
2023/02/15 10:09:52;;;;;;;2.10;1.10;;;;;;;4.24;47.43;101048.48;109299;1254;64898;-80
2023/02/15 10:12:38;;;;;;;1.90;1.00;;;;;;;4.11;47.12;101051.17;109168;1254;58453;-78
2023/02/15 10:15:38;;;;;;;2.10;1.10;;;;;;;4.06;47.40;101054.14;109424;1254;58255;-82
2023/02/15 10:18:19;;;;;;;2.00;1.40;;;;;;;4.20;47.58;101048.13;109381;1254;66234;-81
2023/02/15 10:21:21;;;;;;;2.90;1.40;;;;;;;4.46;47.43;101039.00;109423;1254;58644;-82
2023/02/15 10:24:27;;;;;;;2.30;1.20;;;;;;;4.71;46.28;101043.33;109480;1254;65273;-79
2023/02/15 10:27:01;;;;;;;1.60;0.70;;;;;;;4.89;46.51;101044.58;109170;1254;58168;-79
2023/02/15 10:29:36;;;;;;;1.00;0.80;;;;;;;5.10;46.10;101048.52;109432;1254;57997;-78
2023/02/15 10:32:11;;;;;;;2.90;0.90;;;;;;;5.20;45.59;101045.98;109491;1254;65016;-80
2023/02/15 10:35:00;;;;;;;1.40;0.90;;;;;;;5.17;44.76;101045.55;109488;1254;59425;-76
2023/02/15 10:37:35;;;;;;;1.50;0.80;;;;;;;5.03;44.24;101047.79;109152;1255;64074;-77
2023/02/15 10:40:28;;;;;;;2.80;1.50;;;;;;;4.75;44.24;101049.23;109410;1256;58069;-80
2023/02/15 10:43:04;;;;;;;1.80;0.80;;;;;;;4.56;44.71;101053.22;109459;1256;58232;-76
2023/02/15 10:46:08;;;;;;;1.00;0.60;;;;;;;4.49;44.78;101052.82;109438;1256;65219;-77
2023/02/15 10:48:59;;;;;;;1.60;0.90;;;;;;;4.52;45.02;101050.27;109261;1255;59090;-78
2023/02/15 10:51:35;;;;;;;1.50;0.60;;;;;;;4.79;45.46;101043.83;109424;1256;64898;-78
2023/02/15 10:54:14;;;;;;;1.70;0.70;;;;;;;5.22;45.08;101044.27;109396;1256;58151;-80
2023/02/15 10:56:52;;;;;;;3.30;0.70;;;;;;;5.55;44.31;101044.50;109330;1255;58036;-80
2023/02/15 10:59:36;;;;;;;1.10;0.60;;;;;;;5.65;43.68;101044.51;109210;1255;66151;-79
2023/02/15 11:02:13;;;;;;;2.70;0.90;;;;;;;5.69;43.56;101043.11;109440;1255;59396;-82
2023/02/15 11:04:45;;;;;;;2.80;0.90;;;;;;;5.81;43.62;101041.48;109303;1256;65120;-78
2023/02/15 11:07:36;;;;;;;2.50;1.00;;;;;;;5.98;43.16;101042.05;109413;1256;58051;-84
2023/02/15 11:10:24;;;;;;;1.70;0.70;;;;;;;6.14;43.11;101041.80;109185;1256;58088;-83
2023/02/15 11:12:52;;;;;;;1.50;0.70;;;;;;;6.35;43.22;101039.66;109190;1255;65866;-78
2023/02/15 11:15:31;;;;;;;2.20;0.70;;;;;;;6.43;42.48;101044.70;109198;1256;58473;-82
2023/02/15 11:18:38;;;;;;;1.70;0.80;;;;;;;6.27;41.89;101047.06;109258;1255;64052;-79
2023/02/15 11:21:11;;;;;;;2.10;1.00;;;;;;;5.98;42.14;101047.65;109339;1256;58167;-79
2023/02/15 11:23:41;;;;;;;2.20;1.20;;;;;;;5.82;42.64;101044.95;109159;1256;58129;-78
2023/02/15 11:26:44;;;;;;;2.90;1.00;;;;;;;5.87;43.37;101041.88;109195;1256;64958;-77
2023/02/15 11:29:22;;;;;;;3.10;1.20;;;;;;;6.09;43.28;101048.35;109210;1255;59475;-77
2023/02/15 11:31:54;;;;;;;6.30;1.00;;;;;;;6.17;42.50;101055.97;109437;1255;65216;-77
2023/02/15 11:34:23;;;;;;;1.10;0.70;;;;;;;6.02;41.93;101054.27;109158;1256;58144;-73
2023/02/15 11:36:52;;;;;;;2.00;0.80;;;;;;;5.82;41.84;101058.20;109240;1256;58099;-77
2023/02/15 11:39:20;;;;;;;1.80;1.00;;;;;;;5.71;42.54;101055.04;109190;1255;65849;-77
2023/02/15 11:51:18;;;;;;;0.90;0.60;;;;;;;5.91;41.68;101054.30;109278;1256;58192;-76
2023/02/15 11:58:40;;;;;;;1.10;0.70;;;;;;;6.05;43.20;101053.95;109276;1256;64886;-77
2023/02/15 12:01:45;;;;;;;1.40;0.90;;;;;;;6.45;42.50;101048.77;109162;1256;59204;-75
2023/02/15 12:04:22;;;;;;;1.10;0.60;;;;;;;6.82;41.93;101047.69;109178;1257;64060;-78
2023/02/15 12:06:55;;;;;;;1.50;0.70;;;;;;;7.13;41.47;101043.94;109273;1256;58384;-77
2023/02/15 12:09:40;;;;;;;1.70;0.80;;;;;;;7.38;40.95;101046.05;109271;1256;58169;-76
2023/02/15 12:12:25;;;;;;;2.10;0.80;;;;;;;7.48;40.70;101042.54;109258;1256;66193;-78
2023/02/15 12:14:55;;;;;;;1.10;0.70;;;;;;;7.49;40.38;101043.50;109271;1256;59374;-81
2023/02/15 12:17:26;;;;;;;2.10;0.90;;;;;;;7.58;40.50;101042.48;109171;1256;65073;-82
2023/02/15 12:20:00;;;;;;;5.50;0.90;;;;;;;7.80;40.02;101040.73;109122;1256;58600;-79
2023/02/15 12:22:33;;;;;;;0.80;0.60;;;;;;;7.93;39.33;101038.19;109268;1256;58096;-83
2023/02/15 12:25:04;;;;;;;2.80;0.80;;;;;;;8.07;39.22;101040.16;109136;1257;66216;-81
2023/02/15 12:27:34;;;;;;;1.40;0.70;;;;;;;8.30;39.37;101038.50;109207;1256;59226;-81
2023/02/15 12:30:15;;;;;;;2.60;0.90;;;;;;;8.55;39.13;101036.85;109281;1256;64640;-80
2023/02/15 12:37:09;;;;;;;2.80;0.80;;;;;;;8.60;38.08;101041.43;109042;1256;58220;-81
2023/02/15 12:39:38;;;;;;;1.80;0.90;;;;;;;8.73;38.17;101038.24;109005;1257;65876;-75
2023/02/15 12:42:15;;;;;;;2.30;1.00;;;;;;;8.88;38.09;101039.18;109100;1257;59453;-81
2023/02/15 12:45:01;;;;;;;3.80;0.70;;;;;;;9.02;37.86;101040.08;109070;1257;65064;-84
2023/02/15 12:47:31;;;;;;;2.30;0.90;;;;;;;9.00;37.17;101040.04;109169;1257;58204;-76